Terminal Aerodrome Forecast
Issued by NWS Upton, NY

Home | Current Version | Previous Version | Text Only | Print | Product List | Glossary On
Versions: 1 2 3 4 5 6 7 8 9 10 11 12 13 14 15 16 17 18 19 20 21 22 23 24 25 26 27 28 29 30 31 32 33 34 35 36 37
724
FTUS41 KOKX 291444 AAA
TAFBDR
TAF AMD
KBDR 291444Z 2915/3012 24008KT P6SM FEW030 BKN250
     FM291700 27009G16KT P6SM BKN200
     FM292200 29008KT P6SM BKN250
     FM300000 VRB05KT P6SM SCT250
     FM300900 03007KT P6SM SKC=

USA.gov is the U.S. government's official web portal to all federal, state and local government web resources and services.